sensor_id;sensor_type;location;lat;lon;timestamp;P1;durP1;ratioP1;P2;durP2;ratioP2
58362;SDS011;54977;51.510;7.522;2022-07-09T00:04:16;7.05;;;3.83;;
58362;SDS011;54977;51.510;7.522;2022-07-09T00:09:19;6.97;;;3.85;;
58362;SDS011;54977;51.510;7.522;2022-07-09T00:14:21;8.30;;;4.90;;
58362;SDS011;54977;51.510;7.522;2022-07-09T00:19:23;7.70;;;4.78;;
58362;SDS011;54977;51.510;7.522;2022-07-09T00:24:26;6.63;;;4.50;;
58362;SDS011;54977;51.510;7.522;2022-07-09T00:29:28;7.45;;;4.75;;
58362;SDS011;54977;51.510;7.522;2022-07-09T00:34:30;10.38;;;5.30;;
58362;SDS011;54977;51.510;7.522;2022-07-09T00:39:33;11.48;;;5.07;;
58362;SDS011;54977;51.510;7.522;2022-07-09T00:44:35;8.70;;;5.28;;
58362;SDS011;54977;51.510;7.522;2022-07-09T00:49:38;8.57;;;6.10;;
58362;SDS011;54977;51.510;7.522;2022-07-09T00:54:43;12.27;;;5.47;;
58362;SDS011;54977;51.510;7.522;2022-07-09T00:59:46;10.68;;;5.07;;
58362;SDS011;54977;51.510;7.522;2022-07-09T01:04:48;9.82;;;5.22;;
58362;SDS011;54977;51.510;7.522;2022-07-09T01:09:51;8.20;;;5.47;;
58362;SDS011;54977;51.510;7.522;2022-07-09T01:14:53;11.30;;;5.32;;
58362;SDS011;54977;51.510;7.522;2022-07-09T01:19:55;7.60;;;5.20;;
58362;SDS011;54977;51.510;7.522;2022-07-09T01:24:58;8.73;;;5.35;;
58362;SDS011;54977;51.510;7.522;2022-07-09T01:30:01;6.90;;;3.47;;
58362;SDS011;54977;51.510;7.522;2022-07-09T01:35:04;8.38;;;5.30;;
58362;SDS011;54977;51.510;7.522;2022-07-09T01:40:09;12.10;;;5.30;;
58362;SDS011;54977;51.510;7.522;2022-07-09T01:45:11;9.10;;;5.88;;
58362;SDS011;54977;51.510;7.522;2022-07-09T01:50:13;11.40;;;6.40;;
58362;SDS011;54977;51.510;7.522;2022-07-09T01:55:17;12.18;;;6.25;;
58362;SDS011;54977;51.510;7.522;2022-07-09T02:00:19;12.70;;;6.25;;
58362;SDS011;54977;51.510;7.522;2022-07-09T02:05:21;10.55;;;6.45;;
58362;SDS011;54977;51.510;7.522;2022-07-09T02:10:25;10.50;;;7.05;;
58362;SDS011;54977;51.510;7.522;2022-07-09T02:15:27;13.20;;;6.85;;
58362;SDS011;54977;51.510;7.522;2022-07-09T02:20:29;11.93;;;6.55;;
58362;SDS011;54977;51.510;7.522;2022-07-09T02:25:32;10.93;;;6.22;;
58362;SDS011;54977;51.510;7.522;2022-07-09T02:30:34;11.43;;;6.60;;
58362;SDS011;54977;51.510;7.522;2022-07-09T02:35:37;10.75;;;6.88;;
58362;SDS011;54977;51.510;7.522;2022-07-09T02:40:40;10.93;;;6.32;;
58362;SDS011;54977;51.510;7.522;2022-07-09T02:45:42;11.50;;;6.68;;
58362;SDS011;54977;51.510;7.522;2022-07-09T02:50:43;9.90;;;6.53;;
58362;SDS011;54977;51.510;7.522;2022-07-09T02:55:47;12.80;;;6.95;;
58362;SDS011;54977;51.510;7.522;2022-07-09T03:00:48;11.95;;;6.28;;
58362;SDS011;54977;51.510;7.522;2022-07-09T03:05:50;12.38;;;7.18;;
58362;SDS011;54977;51.510;7.522;2022-07-09T03:10:53;11.30;;;6.78;;
58362;SDS011;54977;51.510;7.522;2022-07-09T03:15:55;11.05;;;6.15;;
58362;SDS011;54977;51.510;7.522;2022-07-09T03:20:58;15.45;;;6.72;;
58362;SDS011;54977;51.510;7.522;2022-07-09T03:26:01;14.98;;;6.57;;
58362;SDS011;54977;51.510;7.522;2022-07-09T03:31:04;11.02;;;6.90;;
58362;SDS011;54977;51.510;7.522;2022-07-09T03:36:06;11.13;;;6.57;;
58362;SDS011;54977;51.510;7.522;2022-07-09T03:41:11;9.45;;;5.53;;
58362;SDS011;54977;51.510;7.522;2022-07-09T03:46:12;12.88;;;6.50;;
58362;SDS011;54977;51.510;7.522;2022-07-09T03:51:14;11.48;;;6.38;;
58362;SDS011;54977;51.510;7.522;2022-07-09T03:56:18;9.88;;;6.05;;
58362;SDS011;54977;51.510;7.522;2022-07-09T04:01:20;13.07;;;7.00;;
58362;SDS011;54977;51.510;7.522;2022-07-09T04:06:22;10.48;;;6.10;;
58362;SDS011;54977;51.510;7.522;2022-07-09T04:11:25;9.70;;;6.32;;
58362;SDS011;54977;51.510;7.522;2022-07-09T04:16:27;9.55;;;6.07;;
58362;SDS011;54977;51.510;7.522;2022-07-09T04:21:29;11.18;;;6.35;;
58362;SDS011;54977;51.510;7.522;2022-07-09T04:26:32;10.70;;;6.40;;
58362;SDS011;54977;51.510;7.522;2022-07-09T04:31:34;12.27;;;7.00;;
58362;SDS011;54977;51.510;7.522;2022-07-09T04:36:36;13.60;;;6.82;;
58362;SDS011;54977;51.510;7.522;2022-07-09T04:41:39;12.10;;;7.03;;
58362;SDS011;54977;51.510;7.522;2022-07-09T04:46:41;13.23;;;7.60;;
58362;SDS011;54977;51.510;7.522;2022-07-09T04:51:43;10.55;;;6.75;;
58362;SDS011;54977;51.510;7.522;2022-07-09T04:56:47;12.05;;;7.30;;
58362;SDS011;54977;51.510;7.522;2022-07-09T05:01:48;14.93;;;7.45;;
58362;SDS011;54977;51.510;7.522;2022-07-09T05:06:50;14.55;;;7.78;;
58362;SDS011;54977;51.510;7.522;2022-07-09T05:11:54;12.75;;;7.65;;
58362;SDS011;54977;51.510;7.522;2022-07-09T05:16:55;11.27;;;6.38;;
58362;SDS011;54977;51.510;7.522;2022-07-09T05:21:57;13.35;;;6.70;;
58362;SDS011;54977;51.510;7.522;2022-07-09T05:27:00;12.43;;;7.97;;
58362;SDS011;54977;51.510;7.522;2022-07-09T05:32:03;13.48;;;8.30;;
58362;SDS011;54977;51.510;7.522;2022-07-09T05:37:06;12.20;;;8.75;;
58362;SDS011;54977;51.510;7.522;2022-07-09T05:42:09;13.50;;;8.43;;
58362;SDS011;54977;51.510;7.522;2022-07-09T05:47:11;10.43;;;6.32;;
58362;SDS011;54977;51.510;7.522;2022-07-09T05:52:15;9.25;;;5.47;;
58362;SDS011;54977;51.510;7.522;2022-07-09T05:57:18;8.38;;;5.15;;
58362;SDS011;54977;51.510;7.522;2022-07-09T06:02:20;8.73;;;5.32;;
58362;SDS011;54977;51.510;7.522;2022-07-09T06:07:22;8.27;;;5.10;;
58362;SDS011;54977;51.510;7.522;2022-07-09T06:12:25;6.28;;;4.35;;
58362;SDS011;54977;51.510;7.522;2022-07-09T06:17:27;7.10;;;4.85;;
58362;SDS011;54977;51.510;7.522;2022-07-09T06:22:28;8.32;;;4.40;;
58362;SDS011;54977;51.510;7.522;2022-07-09T06:27:32;9.00;;;3.90;;
58362;SDS011;54977;51.510;7.522;2022-07-09T06:32:34;8.13;;;4.57;;
58362;SDS011;54977;51.510;7.522;2022-07-09T06:37:36;5.57;;;3.30;;
58362;SDS011;54977;51.510;7.522;2022-07-09T06:42:39;5.22;;;2.97;;
58362;SDS011;54977;51.510;7.522;2022-07-09T06:47:41;5.75;;;3.08;;
58362;SDS011;54977;51.510;7.522;2022-07-09T06:52:42;3.92;;;2.95;;
58362;SDS011;54977;51.510;7.522;2022-07-09T06:57:46;7.63;;;2.80;;
58362;SDS011;54977;51.510;7.522;2022-07-09T07:02:49;4.70;;;2.67;;
58362;SDS011;54977;51.510;7.522;2022-07-09T07:07:50;4.80;;;2.63;;
58362;SDS011;54977;51.510;7.522;2022-07-09T07:12:54;5.15;;;2.30;;
58362;SDS011;54977;51.510;7.522;2022-07-09T07:17:56;7.05;;;2.38;;
58362;SDS011;54977;51.510;7.522;2022-07-09T07:22:58;3.88;;;1.60;;
58362;SDS011;54977;51.510;7.522;2022-07-09T07:28:01;3.25;;;1.30;;
58362;SDS011;54977;51.510;7.522;2022-07-09T07:33:04;2.65;;;1.30;;
58362;SDS011;54977;51.510;7.522;2022-07-09T07:38:06;2.72;;;1.20;;
58362;SDS011;54977;51.510;7.522;2022-07-09T07:43:10;2.25;;;0.90;;
58362;SDS011;54977;51.510;7.522;2022-07-09T07:48:12;3.17;;;1.42;;
58362;SDS011;54977;51.510;7.522;2022-07-09T07:53:14;3.05;;;1.08;;
58362;SDS011;54977;51.510;7.522;2022-07-09T07:58:17;2.28;;;1.25;;
58362;SDS011;54977;51.510;7.522;2022-07-09T08:03:19;2.85;;;1.10;;
58362;SDS011;54977;51.510;7.522;2022-07-09T08:08:21;3.42;;;1.00;;
58362;SDS011;54977;51.510;7.522;2022-07-09T08:13:24;3.45;;;1.02;;
58362;SDS011;54977;51.510;7.522;2022-07-09T08:18:26;2.30;;;0.68;;
58362;SDS011;54977;51.510;7.522;2022-07-09T08:23:28;1.95;;;0.77;;
58362;SDS011;54977;51.510;7.522;2022-07-09T08:28:31;1.38;;;0.50;;
58362;SDS011;54977;51.510;7.522;2022-07-09T08:33:33;2.40;;;0.70;;
58362;SDS011;54977;51.510;7.522;2022-07-09T08:38:35;2.45;;;0.60;;
58362;SDS011;54977;51.510;7.522;2022-07-09T08:43:39;1.60;;;0.60;;
58362;SDS011;54977;51.510;7.522;2022-07-09T08:48:40;1.67;;;0.70;;
58362;SDS011;54977;51.510;7.522;2022-07-09T08:53:44;1.52;;;0.60;;
58362;SDS011;54977;51.510;7.522;2022-07-09T08:58:48;2.25;;;0.60;;
58362;SDS011;54977;51.510;7.522;2022-07-09T09:03:50;1.05;;;0.47;;
58362;SDS011;54977;51.510;7.522;2022-07-09T09:08:53;1.92;;;1.25;;
58362;SDS011;54977;51.510;7.522;2022-07-09T09:13:57;2.75;;;1.27;;
58362;SDS011;54977;51.510;7.522;2022-07-09T09:18:59;2.88;;;0.70;;
58362;SDS011;54977;51.510;7.522;2022-07-09T09:24:00;2.58;;;0.70;;
58362;SDS011;54977;51.510;7.522;2022-07-09T09:29:06;1.90;;;0.80;;
58362;SDS011;54977;51.510;7.522;2022-07-09T09:34:11;3.70;;;0.80;;
58362;SDS011;54977;51.510;7.522;2022-07-09T09:39:15;2.60;;;1.02;;
58362;SDS011;54977;51.510;7.522;2022-07-09T09:44:20;1.88;;;1.02;;
58362;SDS011;54977;51.510;7.522;2022-07-09T09:49:24;3.15;;;1.00;;
58362;SDS011;54977;51.510;7.522;2022-07-09T09:54:26;2.35;;;0.93;;
58362;SDS011;54977;51.510;7.522;2022-07-09T09:59:30;2.20;;;0.80;;
58362;SDS011;54977;51.510;7.522;2022-07-09T10:04:34;3.03;;;0.95;;
58362;SDS011;54977;51.510;7.522;2022-07-09T10:09:37;1.05;;;0.60;;
58362;SDS011;54977;51.510;7.522;2022-07-09T10:14:41;1.92;;;0.75;;
58362;SDS011;54977;51.510;7.522;2022-07-09T10:19:50;3.25;;;0.93;;
58362;SDS011;54977;51.510;7.522;2022-07-09T10:24:54;2.72;;;0.80;;
58362;SDS011;54977;51.510;7.522;2022-07-09T10:29:58;2.30;;;0.70;;
58362;SDS011;54977;51.510;7.522;2022-07-09T10:35:02;4.32;;;0.75;;
58362;SDS011;54977;51.510;7.522;2022-07-09T10:40:08;1.92;;;0.82;;
58362;SDS011;54977;51.510;7.522;2022-07-09T10:45:21;2.72;;;1.00;;
58362;SDS011;54977;51.510;7.522;2022-07-09T10:50:24;2.40;;;1.30;;
58362;SDS011;54977;51.510;7.522;2022-07-09T10:55:27;4.18;;;1.25;;
58362;SDS011;54977;51.510;7.522;2022-07-09T11:00:31;4.85;;;1.25;;
58362;SDS011;54977;51.510;7.522;2022-07-09T11:05:33;2.45;;;1.20;;
58362;SDS011;54977;51.510;7.522;2022-07-09T11:15:47;4.32;;;1.33;;
58362;SDS011;54977;51.510;7.522;2022-07-09T11:20:49;3.58;;;1.30;;
58362;SDS011;54977;51.510;7.522;2022-07-09T11:25:52;3.47;;;1.10;;
58362;SDS011;54977;51.510;7.522;2022-07-09T11:30:58;4.68;;;1.05;;
58362;SDS011;54977;51.510;7.522;2022-07-09T11:36:01;4.18;;;1.05;;
58362;SDS011;54977;51.510;7.522;2022-07-09T11:41:03;3.03;;;1.00;;
58362;SDS011;54977;51.510;7.522;2022-07-09T11:46:06;2.30;;;0.88;;
58362;SDS011;54977;51.510;7.522;2022-07-09T11:51:09;3.05;;;1.00;;
58362;SDS011;54977;51.510;7.522;2022-07-09T11:56:11;4.32;;;1.70;;
58362;SDS011;54977;51.510;7.522;2022-07-09T12:01:15;4.72;;;1.52;;
58362;SDS011;54977;51.510;7.522;2022-07-09T12:06:17;2.78;;;1.20;;
58362;SDS011;54977;51.510;7.522;2022-07-09T12:11:25;4.53;;;1.92;;
58362;SDS011;54977;51.510;7.522;2022-07-09T12:16:29;2.42;;;1.60;;
58362;SDS011;54977;51.510;7.522;2022-07-09T12:21:30;4.18;;;1.85;;
58362;SDS011;54977;51.510;7.522;2022-07-09T12:26:32;4.80;;;2.00;;
58362;SDS011;54977;51.510;7.522;2022-07-09T12:31:35;4.18;;;1.60;;
58362;SDS011;54977;51.510;7.522;2022-07-09T12:36:37;3.10;;;1.80;;
58362;SDS011;54977;51.510;7.522;2022-07-09T12:41:41;3.17;;;1.70;;
58362;SDS011;54977;51.510;7.522;2022-07-09T12:46:44;5.57;;;2.28;;
58362;SDS011;54977;51.510;7.522;2022-07-09T12:51:46;3.45;;;2.40;;
58362;SDS011;54977;51.510;7.522;2022-07-09T12:56:48;4.22;;;2.00;;
58362;SDS011;54977;51.510;7.522;2022-07-09T13:01:51;3.78;;;2.25;;
58362;SDS011;54977;51.510;7.522;2022-07-09T13:06:53;3.15;;;1.75;;
58362;SDS011;54977;51.510;7.522;2022-07-09T13:11:55;3.47;;;2.20;;
58362;SDS011;54977;51.510;7.522;2022-07-09T13:16:58;4.13;;;2.55;;
58362;SDS011;54977;51.510;7.522;2022-07-09T13:22:00;5.90;;;3.88;;
58362;SDS011;54977;51.510;7.522;2022-07-09T13:27:02;6.28;;;4.05;;
58362;SDS011;54977;51.510;7.522;2022-07-09T13:32:09;7.88;;;4.90;;
58362;SDS011;54977;51.510;7.522;2022-07-09T13:37:11;8.90;;;5.55;;
58362;SDS011;54977;51.510;7.522;2022-07-09T13:42:13;7.57;;;4.78;;
58362;SDS011;54977;51.510;7.522;2022-07-09T13:47:17;7.68;;;5.53;;
58362;SDS011;54977;51.510;7.522;2022-07-09T13:52:19;8.07;;;5.47;;
58362;SDS011;54977;51.510;7.522;2022-07-09T13:57:20;8.32;;;5.85;;
58362;SDS011;54977;51.510;7.522;2022-07-09T14:02:24;6.40;;;5.07;;
58362;SDS011;54977;51.510;7.522;2022-07-09T14:07:25;8.35;;;5.68;;
58362;SDS011;54977;51.510;7.522;2022-07-09T14:12:27;5.72;;;4.30;;
58362;SDS011;54977;51.510;7.522;2022-07-09T14:17:30;7.20;;;4.72;;
58362;SDS011;54977;51.510;7.522;2022-07-09T14:22:32;6.82;;;4.50;;
58362;SDS011;54977;51.510;7.522;2022-07-09T14:27:34;5.43;;;4.40;;
58362;SDS011;54977;51.510;7.522;2022-07-09T14:32:37;4.18;;;3.00;;
58362;SDS011;54977;51.510;7.522;2022-07-09T14:37:39;4.32;;;3.08;;
58362;SDS011;54977;51.510;7.522;2022-07-09T14:42:41;4.18;;;3.40;;
58362;SDS011;54977;51.510;7.522;2022-07-09T14:47:44;5.15;;;2.47;;
58362;SDS011;54977;51.510;7.522;2022-07-09T14:52:47;5.13;;;2.00;;
58362;SDS011;54977;51.510;7.522;2022-07-09T14:57:48;3.30;;;2.10;;
58362;SDS011;54977;51.510;7.522;2022-07-09T15:02:52;3.03;;;1.50;;
58362;SDS011;54977;51.510;7.522;2022-07-09T15:07:54;2.28;;;0.88;;
58362;SDS011;54977;51.510;7.522;2022-07-09T15:12:55;1.50;;;0.80;;
58362;SDS011;54977;51.510;7.522;2022-07-09T15:17:59;1.98;;;0.73;;
58362;SDS011;54977;51.510;7.522;2022-07-09T15:23:00;1.70;;;0.80;;
58362;SDS011;54977;51.510;7.522;2022-07-09T15:28:03;2.45;;;0.80;;
58362;SDS011;54977;51.510;7.522;2022-07-09T15:33:06;1.63;;;0.70;;
58362;SDS011;54977;51.510;7.522;2022-07-09T15:38:09;1.15;;;0.50;;
58362;SDS011;54977;51.510;7.522;2022-07-09T15:43:12;2.17;;;0.73;;
58362;SDS011;54977;51.510;7.522;2022-07-09T15:48:15;2.20;;;0.40;;
58362;SDS011;54977;51.510;7.522;2022-07-09T15:53:18;2.80;;;0.60;;
58362;SDS011;54977;51.510;7.522;2022-07-09T15:58:20;2.80;;;0.57;;
58362;SDS011;54977;51.510;7.522;2022-07-09T16:03:23;2.50;;;0.60;;
58362;SDS011;54977;51.510;7.522;2022-07-09T16:08:25;1.08;;;0.40;;
58362;SDS011;54977;51.510;7.522;2022-07-09T16:13:27;2.92;;;0.50;;
58362;SDS011;54977;51.510;7.522;2022-07-09T16:18:30;2.13;;;0.52;;
58362;SDS011;54977;51.510;7.522;2022-07-09T16:23:32;1.83;;;0.60;;
58362;SDS011;54977;51.510;7.522;2022-07-09T16:28:34;3.40;;;0.50;;
58362;SDS011;54977;51.510;7.522;2022-07-09T16:33:37;3.35;;;0.55;;
58362;SDS011;54977;51.510;7.522;2022-07-09T16:38:41;3.75;;;0.85;;
58362;SDS011;54977;51.510;7.522;2022-07-09T16:43:42;2.75;;;0.82;;
58362;SDS011;54977;51.510;7.522;2022-07-09T16:48:46;8.18;;;1.23;;
58362;SDS011;54977;51.510;7.522;2022-07-09T16:53:48;5.30;;;1.88;;
58362;SDS011;54977;51.510;7.522;2022-07-09T16:58:52;2.88;;;0.70;;
58362;SDS011;54977;51.510;7.522;2022-07-09T17:03:56;2.67;;;0.80;;
58362;SDS011;54977;51.510;7.522;2022-07-09T17:08:58;4.22;;;1.65;;
58362;SDS011;54977;51.510;7.522;2022-07-09T17:14:00;2.53;;;0.90;;
58362;SDS011;54977;51.510;7.522;2022-07-09T17:19:03;4.05;;;0.90;;
58362;SDS011;54977;51.510;7.522;2022-07-09T17:24:05;3.25;;;1.00;;
58362;SDS011;54977;51.510;7.522;2022-07-09T17:29:07;6.18;;;1.38;;
58362;SDS011;54977;51.510;7.522;2022-07-09T17:34:10;7.85;;;1.42;;
58362;SDS011;54977;51.510;7.522;2022-07-09T17:39:12;6.75;;;1.23;;
58362;SDS011;54977;51.510;7.522;2022-07-09T17:44:14;3.30;;;1.45;;
58362;SDS011;54977;51.510;7.522;2022-07-09T17:49:17;3.90;;;1.50;;
58362;SDS011;54977;51.510;7.522;2022-07-09T17:54:19;4.82;;;1.23;;
58362;SDS011;54977;51.510;7.522;2022-07-09T17:59:20;6.97;;;1.13;;
58362;SDS011;54977;51.510;7.522;2022-07-09T18:04:24;4.50;;;1.08;;
58362;SDS011;54977;51.510;7.522;2022-07-09T18:09:25;6.72;;;1.45;;
58362;SDS011;54977;51.510;7.522;2022-07-09T18:14:27;5.78;;;1.08;;
58362;SDS011;54977;51.510;7.522;2022-07-09T18:19:30;4.50;;;0.80;;
58362;SDS011;54977;51.510;7.522;2022-07-09T18:24:32;5.30;;;1.13;;
58362;SDS011;54977;51.510;7.522;2022-07-09T18:29:34;4.07;;;0.88;;
58362;SDS011;54977;51.510;7.522;2022-07-09T18:34:37;6.30;;;1.00;;
58362;SDS011;54977;51.510;7.522;2022-07-09T18:39:39;3.40;;;0.90;;
58362;SDS011;54977;51.510;7.522;2022-07-09T18:44:41;3.80;;;0.77;;
58362;SDS011;54977;51.510;7.522;2022-07-09T18:49:47;3.05;;;0.90;;
58362;SDS011;54977;51.510;7.522;2022-07-09T18:54:49;4.22;;;0.98;;
58362;SDS011;54977;51.510;7.522;2022-07-09T18:59:51;2.90;;;0.98;;
58362;SDS011;54977;51.510;7.522;2022-07-09T19:04:54;11.45;;;2.35;;
58362;SDS011;54977;51.510;7.522;2022-07-09T19:09:56;4.82;;;0.80;;
58362;SDS011;54977;51.510;7.522;2022-07-09T19:14:58;4.82;;;1.00;;
58362;SDS011;54977;51.510;7.522;2022-07-09T19:20:02;2.78;;;0.90;;
58362;SDS011;54977;51.510;7.522;2022-07-09T19:25:05;3.83;;;0.77;;
58362;SDS011;54977;51.510;7.522;2022-07-09T19:30:08;4.88;;;0.70;;
58362;SDS011;54977;51.510;7.522;2022-07-09T19:35:12;4.95;;;0.90;;
58362;SDS011;54977;51.510;7.522;2022-07-09T19:40:14;4.55;;;0.90;;
58362;SDS011;54977;51.510;7.522;2022-07-09T19:45:16;3.60;;;0.90;;
58362;SDS011;54977;51.510;7.522;2022-07-09T19:50:19;5.00;;;1.10;;
58362;SDS011;54977;51.510;7.522;2022-07-09T19:55:21;4.40;;;1.10;;
58362;SDS011;54977;51.510;7.522;2022-07-09T20:00:23;4.82;;;0.93;;
58362;SDS011;54977;51.510;7.522;2022-07-09T20:05:26;4.05;;;0.80;;
58362;SDS011;54977;51.510;7.522;2022-07-09T20:10:28;7.88;;;1.20;;
58362;SDS011;54977;51.510;7.522;2022-07-09T20:15:30;4.07;;;0.88;;
58362;SDS011;54977;51.510;7.522;2022-07-09T20:20:34;3.80;;;1.00;;
58362;SDS011;54977;51.510;7.522;2022-07-09T20:25:35;5.72;;;1.27;;
58362;SDS011;54977;51.510;7.522;2022-07-09T20:30:37;6.50;;;1.27;;
58362;SDS011;54977;51.510;7.522;2022-07-09T20:35:41;8.48;;;1.48;;
58362;SDS011;54977;51.510;7.522;2022-07-09T20:40:43;7.97;;;1.30;;
58362;SDS011;54977;51.510;7.522;2022-07-09T20:45:46;4.20;;;1.50;;
58362;SDS011;54977;51.510;7.522;2022-07-09T20:50:49;6.70;;;1.45;;
58362;SDS011;54977;51.510;7.522;2022-07-09T20:55:51;4.78;;;1.35;;
58362;SDS011;54977;51.510;7.522;2022-07-09T21:00:53;6.72;;;1.33;;
58362;SDS011;54977;51.510;7.522;2022-07-09T21:05:56;6.55;;;1.40;;
58362;SDS011;54977;51.510;7.522;2022-07-09T21:10:58;6.03;;;1.52;;
58362;SDS011;54977;51.510;7.522;2022-07-09T21:16:00;5.50;;;1.00;;
58362;SDS011;54977;51.510;7.522;2022-07-09T21:21:03;6.05;;;1.02;;
58362;SDS011;54977;51.510;7.522;2022-07-09T21:26:05;3.90;;;1.00;;
58362;SDS011;54977;51.510;7.522;2022-07-09T21:31:08;5.18;;;1.13;;
58362;SDS011;54977;51.510;7.522;2022-07-09T21:36:12;5.65;;;1.05;;
58362;SDS011;54977;51.510;7.522;2022-07-09T21:41:13;6.03;;;0.93;;
58362;SDS011;54977;51.510;7.522;2022-07-09T21:46:16;7.97;;;1.38;;
58362;SDS011;54977;51.510;7.522;2022-07-09T21:51:19;4.93;;;1.38;;
58362;SDS011;54977;51.510;7.522;2022-07-09T21:56:21;6.90;;;1.20;;
58362;SDS011;54977;51.510;7.522;2022-07-09T22:01:22;5.90;;;1.13;;
58362;SDS011;54977;51.510;7.522;2022-07-09T22:06:26;5.25;;;0.93;;
58362;SDS011;54977;51.510;7.522;2022-07-09T22:11:28;6.28;;;1.20;;
58362;SDS011;54977;51.510;7.522;2022-07-09T22:16:30;7.18;;;1.17;;
58362;SDS011;54977;51.510;7.522;2022-07-09T22:21:33;3.75;;;1.60;;
58362;SDS011;54977;51.510;7.522;2022-07-09T22:26:35;6.32;;;1.10;;
58362;SDS011;54977;51.510;7.522;2022-07-09T22:36:40;3.55;;;0.98;;
58362;SDS011;54977;51.510;7.522;2022-07-09T22:41:42;5.60;;;1.15;;
58362;SDS011;54977;51.510;7.522;2022-07-09T22:46:44;6.70;;;1.20;;
58362;SDS011;54977;51.510;7.522;2022-07-09T22:51:47;3.25;;;1.10;;
58362;SDS011;54977;51.510;7.522;2022-07-09T22:56:51;3.17;;;1.00;;
58362;SDS011;54977;51.510;7.522;2022-07-09T23:01:53;2.83;;;0.98;;
58362;SDS011;54977;51.510;7.522;2022-07-09T23:06:57;5.43;;;0.98;;
58362;SDS011;54977;51.510;7.522;2022-07-09T23:11:59;5.75;;;1.25;;
58362;SDS011;54977;51.510;7.522;2022-07-09T23:17:00;5.40;;;0.88;;
58362;SDS011;54977;51.510;7.522;2022-07-09T23:22:04;4.32;;;0.82;;
58362;SDS011;54977;51.510;7.522;2022-07-09T23:27:06;3.97;;;0.70;;
58362;SDS011;54977;51.510;7.522;2022-07-09T23:32:07;5.95;;;0.90;;
58362;SDS011;54977;51.510;7.522;2022-07-09T23:37:11;3.83;;;0.80;;
58362;SDS011;54977;51.510;7.522;2022-07-09T23:42:13;4.93;;;0.90;;
58362;SDS011;54977;51.510;7.522;2022-07-09T23:47:14;4.53;;;1.00;;
58362;SDS011;54977;51.510;7.522;2022-07-09T23:52:18;4.25;;;0.90;;
58362;SDS011;54977;51.510;7.522;2022-07-09T23:57:19;4.10;;;0.88;;
